createdAt,value
2023-01-30T00:01:32.245Z,18.17
2023-01-30T00:04:00.145Z,17.00
2023-01-30T00:06:27.772Z,20.02
2023-01-30T00:08:55.486Z,21.23
2023-01-30T00:11:23.462Z,21.98
2023-01-30T00:13:51.095Z,19.02
2023-01-30T00:16:18.775Z,20.25
2023-01-30T00:18:46.556Z,19.05
2023-01-30T00:21:15.526Z,20.85
2023-01-30T00:23:43.564Z,20.37
2023-01-30T00:26:12.131Z,20.83
2023-01-30T00:28:40.021Z,19.83
2023-01-30T00:31:08.303Z,22.00
2023-01-30T00:33:37.231Z,22.45
2023-01-30T00:36:05.199Z,22.37
2023-01-30T00:38:32.712Z,23.98
2023-01-30T00:41:00.405Z,23.62
2023-01-30T00:43:46.213Z,25.05
2023-01-30T00:46:51.966Z,27.30
2023-01-30T00:49:19.984Z,28.75
2023-01-30T00:51:47.790Z,23.95
2023-01-30T00:54:15.293Z,27.42
2023-01-30T00:56:42.691Z,29.08
2023-01-30T00:59:10.396Z,26.10
2023-01-30T01:01:38.254Z,25.20
2023-01-30T01:04:06.891Z,26.20
2023-01-30T01:06:34.814Z,24.08
2023-01-30T01:09:02.376Z,27.90
2023-01-30T01:11:30.416Z,27.58
2023-01-30T01:14:00.201Z,27.40
2023-01-30T01:16:29.435Z,25.42
2023-01-30T01:18:59.014Z,28.33
2023-01-30T01:21:26.479Z,29.77
2023-01-30T01:23:56.014Z,25.77
2023-01-30T01:26:24.142Z,25.75
2023-01-30T01:29:00.764Z,24.87
2023-01-30T01:31:28.617Z,25.45
2023-01-30T01:33:56.525Z,27.00
2023-01-30T01:39:13.718Z,28.67
2023-01-30T01:41:41.104Z,25.02
2023-01-30T01:44:13.571Z,29.42
2023-01-30T01:46:46.153Z,30.27
2023-01-30T01:49:26.594Z,26.75
2023-01-30T01:52:03.096Z,25.05
2023-01-30T01:54:42.570Z,27.87
2023-01-30T01:57:20.968Z,27.13
2023-01-30T01:59:57.299Z,24.10
2023-01-30T02:02:25.970Z,26.77
2023-01-30T02:05:03.353Z,28.00
2023-01-30T02:07:50.953Z,31.27
2023-01-30T02:10:24.841Z,28.20
2023-01-30T02:12:52.524Z,26.23
2023-01-30T02:15:21.701Z,27.30
2023-01-30T02:17:49.229Z,25.27
2023-01-30T02:20:23.104Z,26.77
2023-01-30T02:23:24.860Z,25.92
2023-01-30T02:26:05.669Z,25.23
2023-01-30T02:28:41.475Z,29.77
2023-01-30T02:31:15.196Z,27.92
2023-01-30T02:33:42.588Z,24.55
2023-01-30T02:36:19.955Z,24.75
2023-01-30T02:39:00.367Z,27.15
2023-01-30T02:41:37.438Z,27.33
2023-01-30T02:44:06.994Z,26.98
2023-01-30T02:46:44.978Z,25.52
2023-01-30T02:49:35.565Z,31.27
2023-01-30T02:52:03.677Z,26.20
2023-01-30T02:54:32.096Z,28.05
2023-01-30T02:57:00.010Z,25.05
2023-01-30T02:59:31.517Z,25.35
2023-01-30T03:02:13.968Z,26.10
2023-01-30T03:04:55.687Z,25.15
2023-01-30T03:07:26.139Z,24.75
2023-01-30T03:10:24.225Z,25.95
2023-01-30T03:12:59.223Z,23.80
2023-01-30T03:15:44.620Z,27.98
2023-01-30T03:18:12.128Z,27.20
2023-01-30T03:20:40.928Z,27.25
2023-01-30T03:23:08.906Z,26.10
2023-01-30T03:25:38.126Z,24.42
2023-01-30T03:28:06.990Z,26.02
2023-01-30T03:30:34.567Z,24.75
2023-01-30T03:33:02.390Z,26.23
2023-01-30T03:35:30.301Z,24.37
2023-01-30T03:37:58.939Z,25.33
2023-01-30T03:40:26.620Z,25.37
2023-01-30T03:42:55.109Z,26.95
2023-01-30T03:45:22.585Z,22.80
2023-01-30T03:47:50.013Z,27.92
2023-01-30T03:50:18.215Z,27.95
2023-01-30T03:52:46.172Z,28.50
2023-01-30T03:55:13.942Z,25.80
2023-01-30T03:57:41.734Z,28.25
2023-01-30T04:00:09.858Z,28.90
2023-01-30T04:02:44.008Z,30.92
2023-01-30T04:05:12.162Z,34.30
2023-01-30T04:07:41.019Z,30.73
2023-01-30T04:10:10.013Z,26.62
2023-01-30T04:12:37.690Z,26.40
2023-01-30T04:15:06.597Z,26.55
2023-01-30T04:17:36.347Z,25.70
2023-01-30T04:20:07.412Z,27.27
2023-01-30T04:22:35.352Z,28.87
2023-01-30T04:25:02.905Z,29.55
2023-01-30T04:27:30.933Z,29.92
2023-01-30T04:30:00.068Z,29.37
2023-01-30T04:32:27.619Z,27.17
2023-01-30T04:34:55.397Z,28.27
2023-01-30T04:37:22.857Z,28.25
2023-01-30T04:39:50.344Z,31.55
2023-01-30T04:42:18.161Z,28.58
2023-01-30T04:44:47.034Z,32.80
2023-01-30T04:47:14.889Z,34.35
2023-01-30T04:49:42.697Z,32.40
2023-01-30T04:52:12.604Z,30.83
2023-01-30T04:54:40.030Z,29.95
2023-01-30T04:57:07.709Z,33.42
2023-01-30T04:59:35.167Z,34.80
2023-01-30T05:02:03.097Z,29.40
2023-01-30T05:04:30.835Z,27.95
2023-01-30T05:06:58.208Z,28.05
2023-01-30T05:09:26.903Z,28.12
2023-01-30T05:11:54.535Z,29.48
2023-01-30T05:14:21.916Z,31.27
2023-01-30T05:16:49.479Z,27.85
2023-01-30T05:19:17.218Z,29.48
2023-01-30T05:21:44.693Z,33.78
2023-01-30T05:24:12.076Z,35.35
2023-01-30T05:26:39.755Z,32.28
2023-01-30T05:29:07.190Z,32.20
2023-01-30T05:31:35.658Z,27.77
2023-01-30T05:34:03.409Z,32.50
2023-01-30T05:36:30.903Z,32.53
2023-01-30T05:38:58.553Z,32.53
2023-01-30T05:41:26.227Z,28.62
2023-01-30T05:43:53.637Z,32.10
2023-01-30T05:46:21.267Z,32.03
2023-01-30T05:48:49.013Z,24.95
2023-01-30T05:51:18.917Z,31.20
2023-01-30T05:53:46.698Z,29.92
2023-01-30T05:56:14.989Z,28.48
2023-01-30T05:58:42.618Z,28.83
2023-01-30T06:01:12.439Z,32.30
2023-01-30T06:03:40.234Z,33.28
2023-01-30T06:06:07.983Z,31.12
2023-01-30T06:08:35.412Z,33.17
2023-01-30T06:11:09.439Z,34.40
2023-01-30T06:13:37.534Z,36.53
2023-01-30T06:16:06.919Z,36.95
2023-01-30T06:18:34.793Z,40.38
2023-01-30T06:21:02.264Z,36.53
2023-01-30T06:23:29.928Z,36.28
2023-01-30T06:25:57.512Z,39.58
2023-01-30T06:28:25.475Z,39.10
2023-01-30T06:30:53.971Z,39.92
2023-01-30T06:33:21.422Z,37.03
2023-01-30T06:35:50.608Z,35.25
2023-01-30T06:38:20.040Z,37.38
2023-01-30T06:40:48.896Z,35.03
2023-01-30T06:43:16.663Z,37.88
2023-01-30T06:45:44.391Z,38.80
2023-01-30T06:48:11.888Z,43.10
2023-01-30T06:50:39.376Z,40.12
2023-01-30T06:53:07.937Z,39.35
2023-01-30T06:55:36.417Z,39.83
2023-01-30T06:58:07.641Z,44.97
2023-01-30T07:00:35.681Z,48.53
2023-01-30T07:03:03.075Z,53.40
2023-01-30T07:05:30.641Z,64.10
2023-01-30T07:07:58.343Z,69.78
2023-01-30T07:10:26.237Z,69.75
2023-01-30T07:12:53.925Z,54.85
2023-01-30T07:15:21.643Z,51.15
2023-01-30T07:17:49.125Z,48.42
2023-01-30T07:20:16.949Z,40.30
2023-01-30T07:22:55.126Z,43.67
2023-01-30T07:25:24.219Z,38.70
2023-01-30T07:28:01.780Z,38.75
2023-01-30T07:30:31.340Z,38.97
2023-01-30T07:33:00.146Z,38.03
2023-01-30T07:35:30.612Z,35.90
2023-01-30T07:37:58.472Z,35.78
2023-01-30T07:40:26.772Z,33.30
2023-01-30T07:43:08.550Z,34.35
2023-01-30T07:45:40.207Z,31.40
2023-01-30T07:48:11.974Z,30.62
2023-01-30T07:50:40.453Z,31.75
2023-01-30T07:53:10.220Z,31.65
2023-01-30T07:55:38.095Z,32.03
2023-01-30T07:58:05.802Z,33.38
2023-01-30T08:00:34.432Z,31.67
2023-01-30T08:03:02.150Z,43.47
2023-01-30T08:05:29.567Z,40.33
2023-01-30T08:07:57.100Z,32.97
2023-01-30T08:10:24.903Z,30.10
2023-01-30T08:12:52.580Z,35.83
2023-01-30T08:15:21.945Z,32.22
2023-01-30T08:17:55.434Z,36.47
2023-01-30T08:20:23.757Z,40.85
2023-01-30T08:22:52.447Z,45.12
2023-01-30T08:25:20.331Z,38.63
2023-01-30T08:27:47.769Z,43.00
2023-01-30T08:30:15.640Z,39.95
2023-01-30T08:32:43.107Z,35.22
2023-01-30T08:35:10.972Z,37.67
2023-01-30T08:37:42.594Z,29.23
2023-01-30T08:40:10.714Z,24.63
2023-01-30T08:42:38.131Z,21.05
2023-01-30T08:45:06.426Z,23.77
2023-01-30T08:47:35.473Z,26.25
2023-01-30T08:50:04.007Z,25.62
2023-01-30T08:52:35.026Z,26.77
2023-01-30T08:55:02.408Z,28.12
2023-01-30T08:57:29.872Z,26.90
2023-01-30T08:59:57.555Z,22.92
2023-01-30T09:02:24.998Z,24.02
2023-01-30T09:04:52.473Z,25.42
2023-01-30T09:07:20.241Z,24.98
2023-01-30T09:09:48.674Z,27.83
2023-01-30T09:12:16.112Z,24.90
2023-01-30T09:14:43.794Z,26.35
2023-01-30T09:17:11.522Z,24.02
2023-01-30T09:19:38.918Z,25.88
2023-01-30T09:22:07.642Z,23.02
2023-01-30T09:24:35.046Z,26.73
2023-01-30T09:27:02.786Z,23.90
2023-01-30T09:29:30.436Z,24.08
2023-01-30T09:31:58.727Z,27.95
2023-01-30T09:34:28.556Z,23.52
2023-01-30T09:36:57.453Z,27.98
2023-01-30T09:39:24.902Z,23.33
2023-01-30T09:42:04.677Z,26.75
2023-01-30T09:44:44.408Z,24.15
2023-01-30T09:47:16.801Z,24.27
2023-01-30T09:50:08.261Z,25.33
2023-01-30T09:53:06.200Z,23.60
2023-01-30T09:55:37.829Z,22.60
2023-01-30T09:58:05.359Z,25.88
2023-01-30T10:00:36.902Z,26.98
2023-01-30T10:03:24.481Z,24.98
2023-01-30T10:05:55.834Z,28.50
2023-01-30T10:08:54.276Z,24.40
2023-01-30T10:11:40.862Z,26.62
2023-01-30T10:14:15.640Z,26.15
2023-01-30T10:17:13.981Z,24.08
2023-01-30T10:19:44.954Z,21.40
2023-01-30T10:22:36.715Z,25.75
2023-01-30T10:25:25.212Z,21.57
2023-01-30T10:27:58.077Z,22.70
2023-01-30T10:30:25.933Z,22.90
2023-01-30T10:32:57.022Z,23.65
2023-01-30T10:35:29.936Z,22.27
2023-01-30T10:38:12.789Z,28.48
2023-01-30T10:40:44.403Z,24.77
2023-01-30T10:43:37.320Z,27.60
2023-01-30T10:46:35.271Z,25.80
2023-01-30T10:49:06.954Z,24.10
2023-01-30T10:51:46.415Z,29.37
2023-01-30T10:54:19.389Z,25.12
2023-01-30T10:56:52.907Z,28.62
2023-01-30T10:59:51.571Z,29.37
2023-01-30T11:02:26.032Z,27.77
2023-01-30T11:05:02.875Z,26.15
2023-01-30T11:07:33.885Z,24.98
2023-01-30T11:10:01.759Z,28.12
2023-01-30T11:12:29.266Z,32.95
2023-01-30T11:15:01.348Z,33.58
2023-01-30T11:17:34.848Z,30.65
2023-01-30T11:20:16.718Z,30.20
2023-01-30T11:25:22.187Z,24.55
2023-01-30T11:28:04.159Z,22.20
2023-01-30T11:30:35.446Z,25.15
2023-01-30T11:33:14.581Z,30.60
2023-01-30T11:35:54.324Z,31.30
2023-01-30T11:38:25.276Z,25.90
2023-01-30T11:41:02.845Z,24.98
2023-01-30T11:43:30.619Z,23.67
2023-01-30T11:45:58.961Z,25.75
2023-01-30T11:48:34.125Z,24.10
2023-01-30T11:51:16.604Z,34.22
2023-01-30T11:53:49.988Z,29.70
2023-01-30T11:56:32.393Z,29.92
2023-01-30T11:59:03.605Z,24.05
2023-01-30T12:01:35.950Z,30.90
2023-01-30T12:04:08.491Z,31.35
2023-01-30T12:06:39.308Z,32.30
2023-01-30T12:09:34.573Z,38.00
2023-01-30T12:12:02.896Z,35.08
2023-01-30T12:14:44.392Z,47.62
2023-01-30T12:17:21.610Z,42.22
2023-01-30T12:19:57.513Z,34.35
2023-01-30T12:22:40.189Z,29.25
2023-01-30T12:25:19.275Z,25.98
2023-01-30T12:28:00.028Z,24.80
2023-01-30T12:33:06.933Z,23.48
2023-01-30T12:35:45.200Z,39.05
2023-01-30T12:38:53.620Z,28.50
2023-01-30T12:41:31.513Z,34.17
2023-01-30T12:44:10.013Z,31.33
2023-01-30T12:46:55.990Z,26.00
2023-01-30T12:50:00.980Z,26.67
2023-01-30T12:52:37.647Z,22.92
2023-01-30T12:55:07.919Z,21.23
2023-01-30T12:57:50.347Z,20.08
2023-01-30T13:00:32.554Z,20.48
2023-01-30T13:03:19.226Z,20.77
2023-01-30T13:05:54.136Z,22.48
2023-01-30T13:08:21.725Z,20.45
2023-01-30T13:11:29.141Z,21.08
2023-01-30T13:14:13.453Z,27.87
2023-01-30T13:17:14.364Z,24.92
2023-01-30T13:19:57.340Z,29.02
2023-01-30T13:22:30.324Z,18.67
2023-01-30T13:25:13.793Z,26.60
2023-01-30T13:27:44.570Z,18.77
2023-01-30T13:30:16.860Z,20.37
2023-01-30T13:32:47.445Z,20.00
2023-01-30T13:35:24.633Z,24.40
2023-01-30T13:37:52.816Z,50.12
2023-01-30T13:40:33.010Z,32.13
2023-01-30T13:43:07.145Z,29.33
2023-01-30T13:45:37.213Z,21.20
2023-01-30T13:48:08.128Z,19.77
2023-01-30T13:50:54.773Z,20.73
2023-01-30T13:53:37.233Z,19.55
2023-01-30T13:59:00.924Z,18.27
2023-01-30T14:01:59.830Z,17.02
2023-01-30T14:04:30.328Z,17.75
2023-01-30T14:07:14.608Z,17.15
2023-01-30T14:09:46.735Z,17.00
2023-01-30T14:12:23.845Z,15.63
2023-01-30T14:15:04.636Z,19.60
2023-01-30T14:17:32.125Z,16.98
2023-01-30T14:20:20.322Z,20.65
2023-01-30T14:22:54.849Z,16.92
2023-01-30T14:25:22.527Z,19.70
2023-01-30T14:27:52.837Z,16.98
2023-01-30T14:30:44.979Z,18.77
2023-01-30T14:33:21.866Z,19.42
2023-01-30T14:36:15.137Z,17.75
2023-01-30T14:38:44.459Z,22.92
2023-01-30T14:41:23.976Z,24.23
2023-01-30T14:43:53.699Z,23.48
2023-01-30T14:46:21.462Z,21.62
2023-01-30T14:48:55.486Z,21.95
2023-01-30T14:51:45.833Z,20.40
2023-01-30T14:54:14.104Z,17.45
2023-01-30T14:56:56.534Z,23.27
2023-01-30T14:59:33.089Z,18.40
2023-01-30T15:02:12.963Z,21.80
2023-01-30T15:05:01.867Z,19.65
2023-01-30T15:07:45.706Z,17.90
2023-01-30T15:10:31.641Z,22.65
2023-01-30T15:13:17.955Z,23.60
2023-01-30T15:15:56.274Z,21.37
2023-01-30T15:18:57.850Z,21.80
2023-01-30T15:21:40.423Z,19.87
2023-01-30T15:24:24.432Z,20.92
2023-01-30T15:27:13.116Z,19.35
2023-01-30T15:30:16.858Z,19.92
2023-01-30T15:32:45.138Z,21.45
2023-01-30T15:35:18.942Z,24.33
2023-01-30T15:37:46.351Z,30.27
2023-01-30T15:40:20.597Z,25.12
2023-01-30T15:42:52.763Z,26.30
2023-01-30T15:45:50.895Z,25.37
2023-01-30T15:48:41.609Z,22.70
2023-01-30T15:51:13.127Z,24.20
2023-01-30T15:53:43.341Z,24.75
2023-01-30T15:56:16.860Z,26.67
2023-01-30T15:58:44.765Z,24.77
2023-01-30T16:01:18.174Z,25.88
2023-01-30T16:03:45.953Z,26.27
2023-01-30T16:06:33.909Z,24.65
2023-01-30T16:09:04.847Z,23.20
2023-01-30T16:11:42.966Z,21.30
2023-01-30T16:14:15.712Z,20.95
2023-01-30T16:16:56.343Z,20.08
2023-01-30T16:19:29.802Z,17.80
2023-01-30T16:22:00.742Z,21.08
2023-01-30T16:24:32.015Z,20.45
2023-01-30T16:27:02.718Z,17.95
2023-01-30T16:29:34.824Z,24.10
2023-01-30T16:32:02.468Z,23.90
2023-01-30T16:34:35.535Z,23.60
2023-01-30T16:37:05.019Z,23.50
2023-01-30T16:39:35.215Z,24.05
2023-01-30T16:42:17.271Z,22.83
2023-01-30T16:44:44.975Z,21.05
2023-01-30T16:47:28.137Z,20.08
2023-01-30T16:49:56.216Z,18.77
2023-01-30T16:52:26.394Z,19.45
2023-01-30T16:54:59.941Z,21.60
2023-01-30T16:57:40.475Z,23.50
2023-01-30T17:00:38.684Z,21.35
2023-01-30T17:03:18.316Z,21.77
2023-01-30T17:05:48.557Z,20.33
2023-01-30T17:08:44.787Z,28.77
2023-01-30T17:11:29.703Z,25.90
2023-01-30T17:14:26.696Z,21.52
2023-01-30T17:17:08.010Z,23.58
2023-01-30T17:19:36.308Z,34.10
2023-01-30T17:22:06.390Z,24.98
2023-01-30T17:24:35.356Z,24.05
2023-01-30T17:27:04.140Z,22.80
2023-01-30T17:29:42.466Z,18.90
2023-01-30T17:32:13.623Z,21.42
2023-01-30T17:34:41.356Z,18.77
2023-01-30T17:37:15.408Z,19.58
2023-01-30T17:39:43.284Z,19.52
2023-01-30T17:42:14.227Z,20.35
2023-01-30T17:44:41.930Z,19.83
2023-01-30T17:47:11.676Z,18.62
2023-01-30T17:49:39.312Z,18.70
2023-01-30T17:52:07.068Z,20.02
2023-01-30T17:54:34.812Z,21.48
2023-01-30T17:57:04.591Z,27.15
2023-01-30T17:59:32.700Z,22.05
2023-01-30T18:02:00.524Z,21.02
2023-01-30T18:04:28.301Z,23.10
2023-01-30T18:07:01.732Z,21.33
2023-01-30T18:09:30.012Z,21.12
2023-01-30T18:11:57.681Z,25.33
2023-01-30T18:14:25.143Z,30.95
2023-01-30T18:16:53.231Z,26.62
2023-01-30T18:19:24.033Z,31.20
2023-01-30T18:21:51.633Z,29.90
2023-01-30T18:24:20.191Z,42.35
2023-01-30T18:26:47.740Z,44.85
2023-01-30T18:29:15.687Z,39.15
2023-01-30T18:31:43.766Z,44.30
2023-01-30T18:34:11.417Z,41.17
2023-01-30T18:36:38.935Z,39.10
2023-01-30T18:39:06.793Z,47.30
2023-01-30T18:41:35.440Z,38.90
2023-01-30T18:44:04.694Z,43.33
2023-01-30T18:46:32.871Z,67.03
2023-01-30T18:49:00.425Z,162.73
2023-01-30T18:51:29.695Z,141.20
2023-01-30T18:53:57.508Z,66.75
2023-01-30T18:56:31.607Z,42.60
2023-01-30T18:59:04.384Z,39.35
2023-01-30T19:01:35.516Z,30.90
2023-01-30T19:04:05.741Z,31.77
2023-01-30T19:06:36.279Z,28.55
2023-01-30T19:09:04.707Z,31.33
2023-01-30T19:11:50.971Z,20.37
2023-01-30T19:14:18.736Z,17.85
2023-01-30T19:16:46.283Z,18.73
2023-01-30T19:19:13.697Z,17.08
2023-01-30T19:21:41.467Z,15.68
2023-01-30T19:24:13.757Z,18.02
2023-01-30T19:26:41.604Z,18.40
2023-01-30T19:29:09.763Z,14.10
2023-01-30T19:31:37.526Z,18.33
2023-01-30T19:34:06.345Z,16.30
2023-01-30T19:36:35.290Z,15.73
2023-01-30T19:39:03.924Z,14.75
2023-01-30T19:41:34.509Z,15.55
2023-01-30T19:44:03.628Z,16.65
2023-01-30T19:46:31.637Z,17.42
2023-01-30T19:48:59.430Z,15.40
2023-01-30T19:51:29.482Z,18.12
2023-01-30T19:53:58.216Z,13.62
2023-01-30T19:56:27.428Z,20.65
2023-01-30T19:58:56.156Z,20.10
2023-01-30T20:01:27.346Z,12.68
2023-01-30T20:03:55.487Z,13.83
2023-01-30T20:06:26.296Z,13.10
2023-01-30T20:08:56.259Z,11.35
2023-01-30T20:11:24.410Z,13.15
2023-01-30T20:13:53.251Z,9.50
2023-01-30T20:16:25.217Z,11.15
2023-01-30T20:19:02.336Z,13.05
2023-01-30T20:21:30.482Z,13.80
2023-01-30T20:23:58.313Z,12.30
2023-01-30T20:26:30.964Z,17.67
2023-01-30T20:28:58.855Z,10.68
2023-01-30T20:31:27.927Z,10.88
2023-01-30T20:33:57.599Z,10.25
2023-01-30T20:36:26.797Z,10.00
2023-01-30T20:38:55.506Z,11.95
2023-01-30T20:41:25.830Z,10.25
2023-01-30T20:43:57.288Z,11.00
2023-01-30T20:46:27.367Z,11.65
2023-01-30T20:48:56.333Z,10.57
2023-01-30T20:51:31.866Z,9.45
2023-01-30T20:54:01.879Z,10.50
2023-01-30T20:56:35.139Z,8.57
2023-01-30T20:59:05.010Z,7.00
2023-01-30T21:01:32.572Z,7.72
2023-01-30T21:04:05.307Z,7.68
2023-01-30T21:06:41.839Z,6.95
2023-01-30T21:09:14.944Z,6.78
2023-01-30T21:11:43.132Z,7.70
2023-01-30T21:14:10.975Z,8.60
2023-01-30T21:16:38.713Z,6.68
2023-01-30T21:19:08.619Z,6.75
2023-01-30T21:21:39.339Z,9.07
2023-01-30T21:24:13.152Z,6.53
2023-01-30T21:26:42.512Z,7.65
2023-01-30T21:29:11.165Z,8.10
2023-01-30T21:31:39.233Z,6.62
2023-01-30T21:34:08.080Z,6.53
2023-01-30T21:36:35.804Z,7.50
2023-01-30T21:39:22.217Z,5.93
2023-01-30T21:42:08.692Z,6.87
2023-01-30T21:44:37.847Z,5.20
2023-01-30T21:47:07.885Z,7.65
2023-01-30T21:49:36.985Z,5.12
2023-01-30T21:52:04.531Z,5.70
2023-01-30T21:54:32.210Z,5.70
2023-01-30T21:56:59.611Z,6.53
2023-01-30T21:59:27.099Z,5.55
2023-01-30T22:01:54.976Z,7.10
2023-01-30T22:04:22.683Z,6.70
2023-01-30T22:06:50.050Z,6.47
2023-01-30T22:09:17.405Z,6.28
2023-01-30T22:11:46.114Z,6.50
2023-01-30T22:14:14.159Z,5.22
2023-01-30T22:16:41.992Z,5.80
2023-01-30T22:19:09.707Z,4.95
2023-01-30T22:21:39.919Z,7.03
2023-01-30T22:24:08.972Z,5.57
2023-01-30T22:26:36.926Z,5.03
2023-01-30T22:29:05.740Z,5.37
2023-01-30T22:31:40.310Z,5.78
2023-01-30T22:34:08.813Z,8.23
2023-01-30T22:36:37.158Z,4.22
2023-01-30T22:39:05.919Z,4.72
2023-01-30T22:41:35.026Z,4.78
2023-01-30T22:44:04.458Z,3.45
2023-01-30T22:46:33.897Z,5.28
2023-01-30T22:49:03.493Z,5.60
2023-01-30T22:51:33.016Z,5.35
2023-01-30T22:54:02.865Z,4.50
2023-01-30T22:56:35.891Z,4.28
2023-01-30T22:59:03.742Z,4.03
2023-01-30T23:01:37.159Z,4.22
2023-01-30T23:04:05.941Z,5.03
2023-01-30T23:06:34.335Z,5.72
2023-01-30T23:09:02.972Z,5.10
2023-01-30T23:12:10.526Z,4.32
2023-01-30T23:14:39.143Z,4.32
2023-01-30T23:17:25.750Z,5.43
2023-01-30T23:19:56.769Z,4.00
2023-01-30T23:22:24.210Z,5.37
2023-01-30T23:24:51.971Z,4.97
2023-01-30T23:27:20.847Z,3.65
2023-01-30T23:29:48.332Z,3.53
2023-01-30T23:32:19.081Z,4.05
2023-01-30T23:34:47.671Z,2.70
2023-01-30T23:37:15.515Z,3.78
2023-01-30T23:39:42.912Z,4.93
2023-01-30T23:42:10.700Z,3.92
2023-01-30T23:44:38.063Z,3.30
2023-01-30T23:47:05.478Z,3.53
2023-01-30T23:49:33.161Z,4.12
2023-01-30T23:52:00.564Z,3.90
2023-01-30T23:54:27.952Z,4.05
2023-01-30T23:56:55.659Z,5.43
2023-01-30T23:59:23.104Z,4.82
